createdAt,value
2023-04-27T00:00:28.946Z,4.03
2023-04-27T00:05:28.915Z,3.94
2023-04-27T00:10:28.819Z,3.93
2023-04-27T00:15:28.736Z,3.90
2023-04-27T00:20:28.682Z,3.87
2023-04-27T00:25:28.606Z,3.86
2023-04-27T00:30:28.561Z,3.82
2023-04-27T00:35:28.474Z,3.75
2023-04-27T00:40:28.452Z,3.65
2023-04-27T00:45:28.354Z,3.57
2023-04-27T00:50:28.283Z,3.54
2023-04-27T00:55:28.233Z,3.55
2023-04-27T01:00:28.158Z,3.55
2023-04-27T01:05:28.086Z,3.59
2023-04-27T01:10:28.035Z,3.61
2023-04-27T01:15:27.954Z,3.61
2023-04-27T01:20:27.905Z,3.64
2023-04-27T01:25:27.830Z,3.62
2023-04-27T01:30:27.769Z,3.57
2023-04-27T01:35:28.472Z,3.55
2023-04-27T01:40:27.662Z,3.52
2023-04-27T01:45:27.575Z,3.50
2023-04-27T01:50:27.524Z,3.54
2023-04-27T01:55:27.454Z,3.44
2023-04-27T02:00:27.399Z,3.37
2023-04-27T02:05:27.332Z,3.31
2023-04-27T02:10:27.275Z,3.19
2023-04-27T02:15:27.202Z,3.08
2023-04-27T02:20:27.147Z,3.01
2023-04-27T02:25:27.081Z,2.95
2023-04-27T02:30:27.018Z,2.89
2023-04-27T02:35:26.960Z,2.87
2023-04-27T02:40:26.901Z,2.86
2023-04-27T02:45:26.836Z,2.83
2023-04-27T02:50:26.762Z,2.75
2023-04-27T02:55:26.693Z,2.71
2023-04-27T03:00:26.635Z,2.79
2023-04-27T03:05:26.563Z,2.90
2023-04-27T03:10:26.512Z,2.98
2023-04-27T03:15:26.436Z,2.97
2023-04-27T03:20:26.376Z,2.85
2023-04-27T03:25:26.309Z,2.86
2023-04-27T03:30:26.255Z,2.87
2023-04-27T03:35:26.177Z,2.92
2023-04-27T03:40:26.133Z,2.90
2023-04-27T03:45:26.055Z,2.98
2023-04-27T03:50:25.997Z,3.04
2023-04-27T03:55:25.925Z,3.10
2023-04-27T04:00:25.864Z,3.11
2023-04-27T04:05:25.806Z,3.21
2023-04-27T04:10:25.738Z,3.28
2023-04-27T04:15:25.667Z,3.37
2023-04-27T04:20:25.616Z,3.34
2023-04-27T04:25:25.545Z,3.37
2023-04-27T04:30:25.499Z,3.46
2023-04-27T04:35:25.438Z,3.52
2023-04-27T04:40:25.364Z,3.57
2023-04-27T04:45:25.292Z,3.79
2023-04-27T04:50:25.232Z,4.00
2023-04-27T04:55:25.172Z,4.20
2023-04-27T05:00:25.119Z,4.44
2023-04-27T05:05:25.047Z,4.68
2023-04-27T05:10:24.980Z,4.93
2023-04-27T05:15:24.919Z,5.25
2023-04-27T05:20:24.856Z,5.49
2023-04-27T05:25:24.790Z,5.75
2023-04-27T05:30:24.729Z,5.94
2023-04-27T05:35:24.667Z,6.09
2023-04-27T05:40:24.605Z,6.07
2023-04-27T05:45:24.521Z,6.20
2023-04-27T05:50:24.463Z,6.38
2023-04-27T05:55:24.394Z,6.61
2023-04-27T06:00:24.330Z,7.00
2023-04-27T06:05:24.279Z,7.23
2023-04-27T06:10:24.211Z,8.63
2023-04-27T06:15:24.130Z,10.15
2023-04-27T06:20:24.076Z,10.05
2023-04-27T06:25:27.044Z,11.30
2023-04-27T06:30:23.939Z,12.06
2023-04-27T06:35:23.875Z,11.83
2023-04-27T06:40:23.810Z,11.84
2023-04-27T06:45:23.729Z,12.24
2023-04-27T06:50:23.679Z,12.75
2023-04-27T06:55:23.753Z,12.80
2023-04-27T07:00:23.742Z,13.22
2023-04-27T07:05:23.489Z,13.51
2023-04-27T07:10:23.414Z,13.67
2023-04-27T07:15:23.345Z,13.94
2023-04-27T07:20:23.284Z,14.12
2023-04-27T07:25:23.212Z,14.23
2023-04-27T07:30:23.151Z,14.58
2023-04-27T07:35:23.076Z,14.95
2023-04-27T07:40:23.016Z,15.62
2023-04-27T07:45:23.024Z,15.95
2023-04-27T07:50:22.884Z,17.12
2023-04-27T07:55:22.810Z,18.18
2023-04-27T08:00:22.757Z,18.40
2023-04-27T08:05:23.148Z,18.34
2023-04-27T08:10:22.631Z,18.02
2023-04-27T08:15:22.549Z,18.38
2023-04-27T08:20:22.495Z,19.06
2023-04-27T08:25:22.417Z,19.84
2023-04-27T08:30:22.362Z,20.86
2023-04-27T08:35:22.283Z,21.37
2023-04-27T08:40:22.225Z,21.14
2023-04-27T08:45:22.161Z,20.61
2023-04-27T08:50:22.108Z,21.11
2023-04-27T08:55:22.025Z,21.82
2023-04-27T09:00:22.046Z,20.44
2023-04-27T09:05:21.938Z,20.34
2023-04-27T09:10:21.876Z,21.46
2023-04-27T09:15:21.767Z,21.80
2023-04-27T09:20:21.706Z,21.62
2023-04-27T09:25:21.638Z,21.55
2023-04-27T09:30:21.581Z,20.41
2023-04-27T09:35:21.510Z,21.13
2023-04-27T09:40:21.460Z,21.94
2023-04-27T09:45:21.385Z,20.94
2023-04-27T09:50:21.315Z,20.04
2023-04-27T09:55:21.242Z,19.84
2023-04-27T10:00:21.200Z,18.86
2023-04-27T10:05:21.250Z,17.57
2023-04-27T10:10:21.051Z,16.94
2023-04-27T10:15:20.997Z,17.04
2023-04-27T10:20:20.918Z,16.73
2023-04-27T10:25:20.846Z,17.11
2023-04-27T10:30:20.801Z,17.70
2023-04-27T10:35:20.725Z,18.56
2023-04-27T10:40:20.676Z,18.60
2023-04-27T10:45:20.588Z,17.78
2023-04-27T10:50:20.532Z,17.02
2023-04-27T10:55:20.460Z,16.91
2023-04-27T11:00:20.400Z,16.90
2023-04-27T11:05:20.428Z,17.24
2023-04-27T11:10:20.269Z,16.83
2023-04-27T11:15:20.196Z,16.40
2023-04-27T11:20:20.136Z,16.32
2023-04-27T11:25:20.063Z,17.42
2023-04-27T11:30:20.006Z,17.70
2023-04-27T11:35:19.934Z,17.70
2023-04-27T11:40:20.722Z,17.52
2023-04-27T11:45:19.805Z,17.54
2023-04-27T11:50:19.756Z,17.45
2023-04-27T11:55:19.685Z,17.12
2023-04-27T12:00:19.613Z,16.94
2023-04-27T12:05:19.750Z,17.06
2023-04-27T12:10:19.498Z,17.38
2023-04-27T12:15:19.424Z,16.94
2023-04-27T12:20:19.354Z,16.86
2023-04-27T12:25:19.280Z,16.57
2023-04-27T12:30:19.219Z,16.56
2023-04-27T12:35:19.156Z,16.67
2023-04-27T12:40:19.098Z,16.35
2023-04-27T12:45:19.018Z,16.01
2023-04-27T12:50:18.963Z,16.08
2023-04-27T12:55:31.561Z,15.86
2023-04-27T13:00:19.852Z,16.02
2023-04-27T13:05:18.771Z,16.13
2023-04-27T13:10:18.708Z,15.94
2023-04-27T13:15:18.618Z,15.86
2023-04-27T13:20:18.559Z,15.64
2023-04-27T13:25:18.508Z,15.61
2023-04-27T13:30:18.466Z,15.59
2023-04-27T13:35:18.350Z,15.51
2023-04-27T13:40:18.286Z,15.36
2023-04-27T13:45:18.217Z,15.36
2023-04-27T13:50:18.153Z,15.45
2023-04-27T13:55:18.095Z,15.55
2023-04-27T14:00:18.018Z,15.27
2023-04-27T14:05:17.944Z,14.84
2023-04-27T14:10:17.885Z,14.51
2023-04-27T14:15:17.822Z,14.33
2023-04-27T14:20:17.750Z,14.28
2023-04-27T14:25:17.686Z,14.08
2023-04-27T14:30:17.624Z,14.03
2023-04-27T14:35:17.550Z,13.92
2023-04-27T14:40:17.492Z,13.67
2023-04-27T14:45:17.418Z,13.74
2023-04-27T14:50:17.365Z,13.86
2023-04-27T14:55:17.292Z,14.02
2023-04-27T15:00:17.240Z,13.95
2023-04-27T15:05:17.172Z,13.89
2023-04-27T15:10:17.118Z,13.92
2023-04-27T15:15:17.051Z,13.99
2023-04-27T15:20:16.972Z,14.10
2023-04-27T15:25:16.917Z,14.07
2023-04-27T15:30:16.844Z,13.96
2023-04-27T15:35:16.785Z,14.12
2023-04-27T15:40:16.716Z,14.04
2023-04-27T15:45:16.653Z,13.84
2023-04-27T15:50:17.958Z,13.80
2023-04-27T15:55:16.524Z,13.85
2023-04-27T16:00:16.514Z,13.86
2023-04-27T16:05:16.392Z,13.73
2023-04-27T16:10:16.330Z,13.45
2023-04-27T16:15:16.265Z,13.33
2023-04-27T16:20:16.208Z,13.28
2023-04-27T16:25:16.157Z,13.27
2023-04-27T16:30:16.057Z,13.27
2023-04-27T16:35:15.999Z,13.23
2023-04-27T16:40:15.927Z,13.23
2023-04-27T16:45:15.865Z,13.15
2023-04-27T16:50:15.794Z,12.97
2023-04-27T16:55:15.734Z,12.87
2023-04-27T17:00:15.658Z,12.86
2023-04-27T17:05:15.700Z,12.86
2023-04-27T17:10:15.533Z,12.73
2023-04-27T17:15:15.470Z,12.46
2023-04-27T17:20:15.402Z,12.39
2023-04-27T17:25:15.354Z,12.31
2023-04-27T17:30:15.266Z,12.31
2023-04-27T17:35:15.215Z,12.23
2023-04-27T17:40:15.135Z,12.21
2023-04-27T17:45:15.073Z,12.19
2023-04-27T17:50:14.999Z,12.11
2023-04-27T17:55:14.952Z,12.02
2023-04-27T18:00:14.875Z,11.93
2023-04-27T18:05:14.818Z,11.86
2023-04-27T18:10:14.741Z,11.73
2023-04-27T18:15:14.683Z,11.63
2023-04-27T18:20:14.616Z,11.55
2023-04-27T18:25:14.554Z,11.40
2023-04-27T18:30:14.482Z,11.27
2023-04-27T18:35:14.432Z,11.17
2023-04-27T18:40:14.347Z,11.09
2023-04-27T18:45:14.300Z,11.01
2023-04-27T18:50:14.232Z,10.93
2023-04-27T18:55:14.154Z,10.81
2023-04-27T19:00:14.116Z,10.73
2023-04-27T19:05:14.276Z,10.66
2023-04-27T19:10:13.970Z,10.55
2023-04-27T19:15:13.986Z,10.52
2023-04-27T19:20:13.822Z,10.52
2023-04-27T19:25:13.773Z,10.53
2023-04-27T19:30:13.693Z,10.50
2023-04-27T19:35:13.636Z,10.41
2023-04-27T19:40:13.687Z,10.30
2023-04-27T19:45:13.499Z,10.30
2023-04-27T19:50:13.446Z,10.17
2023-04-27T19:55:13.366Z,10.10
2023-04-27T20:00:13.290Z,10.02
2023-04-27T20:05:13.867Z,9.94
2023-04-27T20:10:13.179Z,9.87
2023-04-27T20:15:13.109Z,9.82
2023-04-27T20:20:13.033Z,9.79
2023-04-27T20:25:12.973Z,9.73
2023-04-27T20:30:12.894Z,9.67
2023-04-27T20:35:12.839Z,9.63
2023-04-27T20:40:14.222Z,9.63
2023-04-27T20:45:12.765Z,9.57
2023-04-27T20:50:12.637Z,9.55
2023-04-27T20:55:12.583Z,9.47
2023-04-27T21:00:12.512Z,9.43
2023-04-27T21:05:12.467Z,9.30
2023-04-27T21:10:12.383Z,9.15
2023-04-27T21:15:12.319Z,9.13
2023-04-27T21:20:12.253Z,9.17
2023-04-27T21:25:12.190Z,9.17
2023-04-27T21:30:12.115Z,9.18
2023-04-27T21:35:12.061Z,9.17
2023-04-27T21:40:11.988Z,9.09
2023-04-27T21:45:11.929Z,9.06
2023-04-27T21:50:11.856Z,8.92
2023-04-27T21:55:11.795Z,8.81
2023-04-27T22:00:11.728Z,8.67
2023-04-27T22:05:11.667Z,8.66
2023-04-27T22:10:11.590Z,8.61
2023-04-27T22:15:11.545Z,8.53
2023-04-27T22:20:11.472Z,8.53
2023-04-27T22:25:11.409Z,8.38
2023-04-27T22:30:11.338Z,8.33
2023-04-27T22:35:18.608Z,8.41
2023-04-27T22:40:12.228Z,8.42
2023-04-27T22:45:11.144Z,8.38
2023-04-27T22:50:11.070Z,8.37
2023-04-27T22:55:11.013Z,8.35
2023-04-27T23:00:10.963Z,8.41
2023-04-27T23:05:11.106Z,8.44
2023-04-27T23:10:10.838Z,8.41
2023-04-27T23:15:10.749Z,8.35
2023-04-27T23:20:26.671Z,8.32
2023-04-27T23:25:11.650Z,8.30
2023-04-27T23:30:10.547Z,8.26
2023-04-27T23:35:10.495Z,8.26
2023-04-27T23:40:10.416Z,8.12
2023-04-27T23:45:10.373Z,8.12
2023-04-27T23:50:10.298Z,8.07
2023-04-27T23:55:10.258Z,7.99
